createdAt,value
2018-06-12T00:02:19.468Z,15.80
2018-06-12T00:04:47.708Z,15.80
2018-06-12T00:07:15.928Z,15.80
2018-06-12T00:09:44.133Z,15.90
2018-06-12T00:12:12.345Z,16.00
2018-06-12T00:14:40.546Z,16.10
2018-06-12T00:17:08.780Z,16.20
2018-06-12T00:19:36.996Z,16.20
2018-06-12T00:22:05.233Z,16.30
2018-06-12T00:24:33.430Z,16.20
2018-06-12T00:27:01.668Z,16.20
2018-06-12T00:29:29.884Z,16.20
2018-06-12T00:31:58.131Z,16.10
2018-06-12T00:34:26.354Z,16.10
2018-06-12T00:36:54.619Z,16.10
2018-06-12T00:39:22.818Z,16.00
2018-06-12T00:41:51.035Z,16.00
2018-06-12T00:44:19.284Z,15.90
2018-06-12T00:46:47.568Z,15.80
2018-06-12T00:49:15.789Z,15.80
2018-06-12T00:51:44.024Z,15.70
2018-06-12T00:54:12.243Z,15.60
2018-06-12T00:56:51.760Z,15.60
2018-06-12T00:59:20.037Z,15.50
2018-06-12T01:01:48.268Z,15.50
2018-06-12T01:04:16.527Z,15.50
2018-06-12T01:06:44.740Z,15.40
2018-06-12T01:09:12.968Z,15.40
2018-06-12T01:11:41.171Z,15.60
2018-06-12T01:14:09.840Z,15.60
2018-06-12T01:16:38.060Z,15.50
2018-06-12T01:19:06.283Z,15.40
2018-06-12T01:21:34.487Z,15.30
2018-06-12T01:26:30.723Z,15.10
2018-06-12T01:28:58.937Z,15.20
2018-06-12T01:31:27.164Z,15.30
2018-06-12T01:33:55.364Z,15.30
2018-06-12T01:36:23.583Z,15.30
2018-06-12T01:38:51.775Z,15.30
2018-06-12T01:41:19.984Z,15.30
2018-06-12T01:46:17.094Z,15.40
2018-06-12T01:48:45.302Z,15.40
2018-06-12T01:51:13.529Z,15.50
2018-06-12T01:53:41.749Z,15.60
2018-06-12T01:56:09.965Z,15.60
2018-06-12T01:58:38.185Z,15.60
2018-06-12T02:01:06.403Z,15.60
2018-06-12T02:03:34.628Z,15.70
2018-06-12T02:06:02.863Z,15.70
2018-06-12T02:08:31.065Z,15.60
2018-06-12T02:10:59.263Z,15.70
2018-06-12T02:13:27.492Z,15.70
2018-06-12T02:15:55.679Z,15.60
2018-06-12T02:18:23.899Z,15.60
2018-06-12T02:20:52.127Z,15.60
2018-06-12T02:23:20.348Z,15.50
2018-06-12T02:25:48.550Z,15.50
2018-06-12T02:28:16.792Z,15.50
2018-06-12T02:30:45.012Z,15.50
2018-06-12T02:33:13.241Z,15.50
2018-06-12T02:35:41.444Z,15.50
2018-06-12T02:38:09.864Z,15.50
2018-06-12T02:40:38.063Z,15.50
2018-06-12T02:43:06.284Z,15.50
2018-06-12T02:45:34.498Z,15.50
2018-06-12T02:48:02.752Z,15.40
2018-06-12T02:50:30.965Z,15.50
2018-06-12T02:52:59.170Z,15.50
2018-06-12T02:55:27.403Z,15.50
2018-06-12T02:57:55.637Z,15.50
2018-06-12T03:00:23.877Z,15.50
2018-06-12T03:02:52.102Z,15.50
2018-06-12T03:05:20.329Z,15.50
2018-06-12T03:07:48.539Z,15.40
2018-06-12T03:10:16.775Z,15.50
2018-06-12T03:12:45.008Z,15.40
2018-06-12T03:15:13.234Z,15.50
2018-06-12T03:17:41.444Z,15.50
2018-06-12T03:20:09.944Z,15.40
2018-06-12T03:22:38.152Z,15.50
2018-06-12T03:25:06.383Z,15.50
2018-06-12T03:27:34.613Z,15.50
2018-06-12T03:30:02.841Z,15.50
2018-06-12T03:32:31.044Z,15.50
2018-06-12T03:34:59.254Z,15.50
2018-06-12T03:37:27.460Z,15.50
2018-06-12T03:39:55.717Z,15.50
2018-06-12T03:42:23.917Z,15.50
2018-06-12T03:44:52.152Z,15.50
2018-06-12T03:47:20.390Z,15.50
2018-06-12T03:49:48.600Z,15.50
2018-06-12T03:52:23.335Z,15.50
2018-06-12T03:54:51.822Z,15.50
2018-06-12T03:57:20.040Z,15.50
2018-06-12T03:59:48.235Z,15.50
2018-06-12T04:02:16.452Z,15.50
2018-06-12T04:04:44.708Z,15.50
2018-06-12T04:07:12.924Z,15.50
2018-06-12T04:09:41.122Z,15.50
2018-06-12T04:12:09.384Z,15.50
2018-06-12T04:14:37.591Z,15.60
2018-06-12T04:17:05.936Z,15.60
2018-06-12T04:19:35.623Z,15.60
2018-06-12T04:22:03.852Z,15.70
2018-06-12T04:24:32.083Z,15.60
2018-06-12T04:27:00.297Z,15.60
2018-06-12T04:29:28.522Z,15.60
2018-06-12T04:31:56.718Z,15.60
2018-06-12T04:34:24.959Z,15.60
2018-06-12T04:36:53.187Z,15.60
2018-06-12T04:39:21.788Z,15.70
2018-06-12T04:41:49.991Z,15.70
2018-06-12T04:44:18.215Z,15.70
2018-06-12T04:46:46.435Z,15.70
2018-06-12T04:49:14.692Z,15.80
2018-06-12T04:51:42.916Z,15.80
2018-06-12T04:54:11.172Z,15.90
2018-06-12T04:56:39.411Z,16.00
2018-06-12T04:59:07.635Z,16.00
2018-06-12T05:01:35.839Z,16.20
2018-06-12T05:04:04.156Z,16.20
2018-06-12T05:06:32.387Z,16.30
2018-06-12T05:09:00.584Z,16.30
2018-06-12T05:11:28.806Z,16.40
2018-06-12T05:13:57.011Z,16.50
2018-06-12T05:16:25.244Z,16.60
2018-06-12T05:18:53.449Z,16.70
2018-06-12T05:21:21.675Z,16.70
2018-06-12T05:23:49.866Z,16.70
2018-06-12T05:26:18.076Z,16.80
2018-06-12T05:28:46.364Z,16.80
2018-06-12T05:31:14.600Z,16.80
2018-06-12T05:33:43.145Z,16.80
2018-06-12T05:36:11.388Z,16.80
2018-06-12T05:38:39.595Z,16.90
2018-06-12T05:41:07.826Z,17.00
2018-06-12T05:43:36.012Z,17.10
2018-06-12T05:46:04.323Z,17.10
2018-06-12T05:48:32.540Z,17.20
2018-06-12T05:51:00.759Z,17.40
2018-06-12T05:53:28.968Z,17.60
2018-06-12T05:55:57.183Z,17.80
2018-06-12T05:58:25.380Z,18.00
2018-06-12T06:00:53.603Z,18.00
2018-06-12T06:03:21.814Z,18.00
2018-06-12T06:05:50.060Z,18.20
2018-06-12T06:08:18.255Z,18.40
2018-06-12T06:10:46.824Z,18.60
2018-06-12T06:13:15.055Z,18.60
2018-06-12T06:18:11.249Z,19.00
2018-06-12T06:20:39.457Z,19.20
2018-06-12T06:23:07.700Z,19.20
2018-06-12T06:25:35.891Z,19.00
2018-06-12T06:28:04.167Z,18.70
2018-06-12T06:30:32.386Z,18.80
2018-06-12T06:33:00.631Z,19.10
2018-06-12T06:35:28.844Z,19.30
2018-06-12T06:37:57.076Z,19.30
2018-06-12T06:40:25.277Z,19.40
2018-06-12T06:42:53.500Z,19.60
2018-06-12T06:45:21.730Z,19.50
2018-06-12T06:47:49.958Z,19.50
2018-06-12T06:50:18.177Z,19.90
2018-06-12T06:52:46.450Z,20.30
2018-06-12T06:55:14.664Z,20.50
2018-06-12T06:57:42.924Z,20.50
2018-06-12T07:00:11.126Z,20.30
2018-06-12T07:02:39.396Z,20.40
2018-06-12T07:05:07.618Z,20.80
2018-06-12T07:07:35.826Z,21.00
2018-06-12T07:10:04.056Z,20.70
2018-06-12T07:12:32.284Z,20.70
2018-06-12T07:15:00.569Z,20.80
2018-06-12T07:17:28.761Z,20.90
2018-06-12T07:19:56.993Z,21.00
2018-06-12T07:22:25.798Z,21.10
2018-06-12T07:24:54.032Z,20.80
2018-06-12T07:27:22.341Z,20.90
2018-06-12T07:29:50.564Z,21.50
2018-06-12T07:32:18.822Z,21.60
2018-06-12T07:34:47.047Z,22.10
2018-06-12T07:37:15.260Z,25.10
2018-06-12T07:39:43.487Z,26.70
2018-06-12T07:42:11.733Z,26.00
2018-06-12T07:44:39.950Z,26.80
2018-06-12T07:47:08.165Z,29.20
2018-06-12T07:52:04.459Z,29.80
2018-06-12T07:54:32.677Z,27.80
2018-06-12T07:59:29.277Z,28.90
2018-06-12T08:01:57.502Z,30.30
2018-06-12T08:06:53.758Z,30.60
2018-06-12T08:09:21.947Z,28.90
2018-06-12T08:11:50.189Z,26.10
2018-06-12T08:14:18.419Z,24.40
2018-06-12T08:16:46.652Z,23.60
2018-06-12T08:19:14.854Z,23.00
2018-06-12T08:21:43.085Z,25.50
2018-06-12T08:24:11.321Z,29.20
2018-06-12T08:26:39.577Z,32.30
2018-06-12T08:29:07.818Z,32.40
2018-06-12T08:31:36.041Z,30.40
2018-06-12T08:34:04.235Z,28.90
2018-06-12T08:36:32.632Z,28.50
2018-06-12T08:39:00.868Z,28.10
2018-06-12T08:41:29.077Z,28.90
2018-06-12T08:43:57.297Z,29.00
2018-06-12T08:46:25.615Z,29.10
2018-06-12T08:48:53.798Z,27.90
2018-06-12T08:51:22.074Z,26.10
2018-06-12T08:53:50.288Z,26.40
2018-06-12T08:56:18.529Z,27.60
2018-06-12T08:58:46.736Z,28.50
2018-06-12T09:01:14.948Z,31.00
2018-06-12T09:03:43.260Z,32.40
2018-06-12T09:08:39.488Z,30.40
2018-06-12T09:11:07.702Z,28.40
2018-06-12T09:13:35.947Z,29.00
2018-06-12T09:16:04.147Z,31.80
2018-06-12T09:18:32.388Z,34.30
2018-06-12T09:21:00.620Z,33.90
2018-06-12T09:23:28.836Z,30.10
2018-06-12T09:25:57.048Z,27.50
2018-06-12T09:28:25.277Z,27.60
2018-06-12T09:30:53.483Z,29.40
2018-06-12T09:33:21.704Z,30.00
2018-06-12T09:35:49.916Z,29.40
2018-06-12T09:38:18.147Z,30.00
2018-06-12T09:40:46.351Z,28.90
2018-06-12T09:43:14.590Z,27.40
2018-06-12T09:45:42.796Z,27.00
2018-06-12T09:48:11.021Z,26.70
2018-06-12T09:50:39.252Z,26.50
2018-06-12T09:53:07.503Z,26.40
2018-06-12T09:55:35.720Z,26.70
2018-06-12T09:58:04.401Z,26.10
2018-06-12T10:00:37.992Z,25.90
2018-06-12T10:03:06.312Z,26.00
2018-06-12T10:05:34.507Z,26.10
2018-06-12T10:08:02.735Z,26.40
2018-06-12T10:10:30.950Z,26.70
2018-06-12T10:12:59.200Z,25.60
2018-06-12T10:15:27.428Z,24.30
2018-06-12T10:17:55.692Z,23.90
2018-06-12T10:20:23.932Z,23.60
2018-06-12T10:22:52.208Z,24.20
2018-06-12T10:25:20.423Z,24.40
2018-06-12T10:27:48.651Z,24.30
2018-06-12T10:30:16.878Z,24.00
2018-06-12T10:35:13.092Z,24.60
2018-06-12T10:37:41.291Z,24.50
2018-06-12T10:42:37.501Z,25.10
2018-06-12T10:45:05.731Z,25.30
2018-06-12T10:47:33.965Z,24.90
2018-06-12T10:50:02.199Z,24.70
2018-06-12T10:52:30.408Z,24.50
2018-06-12T10:54:58.624Z,24.40
2018-06-12T10:57:26.837Z,24.30
2018-06-12T10:59:55.108Z,23.90
2018-06-12T11:02:23.329Z,23.40
2018-06-12T11:04:51.590Z,23.50
2018-06-12T11:07:19.792Z,23.80
2018-06-12T11:09:48.012Z,24.00
2018-06-12T11:12:16.240Z,24.40
2018-06-12T11:14:44.484Z,24.40
2018-06-12T11:17:12.675Z,23.70
2018-06-12T11:19:40.914Z,23.20
2018-06-12T11:22:09.129Z,22.90
2018-06-12T11:24:37.350Z,22.80
2018-06-12T11:27:05.570Z,23.00
2018-06-12T11:29:33.785Z,23.60
2018-06-12T11:32:01.982Z,24.00
2018-06-12T11:34:30.231Z,24.00
2018-06-12T11:36:58.424Z,24.00
2018-06-12T11:39:26.623Z,24.10
2018-06-12T11:41:54.842Z,24.50
2018-06-12T11:44:23.098Z,24.90
2018-06-12T11:46:51.322Z,25.20
2018-06-12T11:49:19.545Z,25.00
2018-06-12T11:51:47.775Z,24.90
2018-06-12T11:54:15.979Z,25.20
2018-06-12T11:56:44.196Z,25.20
2018-06-12T11:59:13.040Z,24.90
2018-06-12T12:01:41.322Z,24.40
2018-06-12T12:04:09.562Z,24.10
2018-06-12T12:06:37.852Z,24.10
2018-06-12T12:09:08.343Z,24.60
2018-06-12T12:11:37.024Z,25.30
2018-06-12T12:14:05.565Z,25.90
2018-06-12T12:19:01.768Z,25.70
2018-06-12T12:21:29.991Z,25.40
2018-06-12T12:23:58.201Z,24.70
2018-06-12T12:26:26.432Z,24.40
2018-06-12T12:28:54.647Z,23.90
2018-06-12T12:31:23.153Z,23.70
2018-06-12T12:33:51.363Z,23.80
2018-06-12T12:36:19.612Z,24.20
2018-06-12T12:38:47.820Z,24.50
2018-06-12T12:41:16.066Z,24.80
2018-06-12T12:43:44.300Z,24.90
2018-06-12T12:46:12.491Z,24.50
2018-06-12T12:48:40.720Z,23.90
2018-06-12T12:51:08.945Z,23.40
2018-06-12T12:53:37.152Z,23.10
2018-06-12T12:58:33.452Z,23.20
2018-06-12T13:01:01.663Z,23.50
2018-06-12T13:05:57.898Z,23.40
2018-06-12T13:08:26.113Z,23.60
2018-06-12T13:10:54.311Z,23.50
2018-06-12T13:13:22.541Z,23.30
2018-06-12T13:15:50.747Z,23.30
2018-06-12T13:18:19.013Z,23.50
2018-06-12T13:20:47.233Z,23.60
2018-06-12T13:23:15.478Z,23.90
2018-06-12T13:25:43.716Z,23.90
2018-06-12T13:28:11.980Z,23.80
2018-06-12T13:33:08.416Z,23.50
2018-06-12T13:38:04.791Z,23.00
2018-06-12T13:40:33.395Z,22.60
2018-06-12T13:43:02.084Z,22.60
2018-06-12T13:45:30.288Z,22.70
2018-06-12T13:47:58.622Z,22.70
2018-06-12T13:50:26.851Z,22.70
2018-06-12T13:52:55.068Z,22.90
2018-06-12T13:55:23.305Z,23.10
2018-06-12T13:57:51.532Z,23.60
2018-06-12T14:00:19.733Z,23.90
2018-06-12T14:02:47.954Z,24.30
2018-06-12T14:05:16.847Z,24.50
2018-06-12T14:07:45.108Z,24.50
2018-06-12T14:10:13.319Z,24.60
2018-06-12T14:12:41.547Z,24.30
2018-06-12T14:15:09.780Z,24.20
2018-06-12T14:17:37.984Z,24.10
2018-06-12T14:22:34.245Z,23.70
2018-06-12T14:25:02.475Z,23.60
2018-06-12T14:27:30.704Z,23.40
2018-06-12T14:29:58.936Z,23.40
2018-06-12T14:32:27.153Z,23.40
2018-06-12T14:34:55.397Z,23.30
2018-06-12T14:39:51.628Z,23.50
2018-06-12T14:42:19.828Z,23.70
2018-06-12T14:44:48.069Z,23.90
2018-06-12T14:47:16.280Z,23.90
2018-06-12T14:49:44.500Z,24.00
2018-06-12T14:52:12.717Z,24.10
2018-06-12T14:54:40.956Z,24.10
2018-06-12T14:57:09.337Z,23.90
2018-06-12T14:59:37.578Z,23.70
2018-06-12T15:02:05.812Z,23.50
2018-06-12T15:04:34.076Z,23.20
2018-06-12T15:09:30.340Z,23.00
2018-06-12T15:11:58.617Z,22.80
2018-06-12T15:14:26.867Z,22.60
2018-06-12T15:16:55.089Z,22.30
2018-06-12T15:19:23.313Z,22.10
2018-06-12T15:21:51.508Z,22.20
2018-06-12T15:24:19.715Z,22.30
2018-06-12T15:26:47.931Z,22.40
2018-06-12T15:29:16.159Z,22.60
2018-06-12T15:31:44.396Z,22.80
2018-06-12T15:36:40.652Z,23.20
2018-06-12T15:39:08.860Z,23.10
2018-06-12T15:41:37.188Z,23.00
2018-06-12T15:44:05.433Z,22.90
2018-06-12T15:46:33.655Z,22.90
2018-06-12T15:49:01.893Z,22.90
2018-06-12T15:51:30.142Z,23.00
2018-06-12T15:53:58.356Z,23.00
2018-06-12T15:56:26.635Z,22.90
2018-06-12T16:01:22.848Z,22.60
2018-06-12T16:03:51.068Z,22.60
2018-06-12T16:06:19.300Z,22.50
2018-06-12T16:08:47.628Z,22.40
2018-06-12T16:11:15.856Z,22.40
2018-06-12T16:13:44.076Z,22.50
2018-06-12T16:16:12.316Z,22.60
2018-06-12T16:18:40.513Z,22.60
2018-06-12T16:21:08.792Z,22.60
2018-06-12T16:23:37.008Z,22.60
2018-06-12T16:26:05.291Z,22.50
2018-06-12T16:28:33.479Z,22.40
2018-06-12T16:31:01.711Z,22.20
2018-06-12T16:33:29.925Z,22.10
2018-06-12T16:35:58.166Z,22.00
2018-06-12T16:38:26.383Z,22.00
2018-06-12T16:40:54.628Z,21.80
2018-06-12T16:43:31.694Z,21.70
2018-06-12T16:45:59.961Z,21.60
2018-06-12T16:48:28.192Z,21.50
2018-06-12T16:50:56.441Z,21.50
2018-06-12T16:53:24.676Z,21.60
2018-06-12T16:55:52.880Z,21.50
2018-06-12T16:58:21.127Z,21.50
2018-06-12T17:00:49.330Z,21.40
2018-06-12T17:03:17.584Z,21.40
2018-06-12T17:05:45.781Z,21.30
2018-06-12T17:08:14.015Z,21.30
2018-06-12T17:10:42.225Z,21.40
2018-06-12T17:13:10.443Z,21.60
2018-06-12T17:15:38.661Z,21.50
2018-06-12T17:18:06.899Z,21.40
2018-06-12T17:20:35.107Z,21.20
2018-06-12T17:23:03.336Z,21.00
2018-06-12T17:25:31.563Z,20.80
2018-06-12T17:27:59.797Z,20.60
2018-06-12T17:30:28.055Z,20.50
2018-06-12T17:35:24.261Z,20.60
2018-06-12T17:37:52.500Z,20.60
2018-06-12T17:40:20.711Z,20.70
2018-06-12T17:42:48.972Z,20.70
2018-06-12T17:45:17.172Z,20.70
2018-06-12T17:47:45.388Z,20.60
2018-06-12T17:50:13.601Z,20.60
2018-06-12T17:52:41.828Z,20.60
2018-06-12T17:55:10.048Z,20.60
2018-06-12T17:57:38.291Z,20.50
2018-06-12T18:00:06.501Z,20.40
2018-06-12T18:02:34.741Z,20.20
2018-06-12T18:05:02.975Z,20.10
2018-06-12T18:07:31.199Z,19.90
2018-06-12T18:09:59.428Z,19.80
2018-06-12T18:12:27.668Z,19.70
2018-06-12T18:14:55.907Z,19.60
2018-06-12T18:17:24.168Z,19.60
2018-06-12T18:19:57.647Z,19.60
2018-06-12T18:22:25.857Z,19.50
2018-06-12T18:24:54.143Z,19.50
2018-06-12T18:27:22.327Z,19.50
2018-06-12T18:29:50.553Z,19.50
2018-06-12T18:32:18.788Z,19.50
2018-06-12T18:34:47.028Z,19.50
2018-06-12T18:37:15.267Z,19.50
2018-06-12T18:39:43.508Z,19.50
2018-06-12T18:42:11.725Z,19.70
2018-06-12T18:44:39.998Z,19.60
2018-06-12T18:49:36.201Z,19.50
2018-06-12T18:52:04.425Z,19.40
2018-06-12T18:54:32.655Z,19.20
2018-06-12T18:57:00.881Z,19.10
2018-06-12T18:59:29.103Z,19.00
2018-06-12T19:01:57.344Z,18.90
2018-06-12T19:04:25.595Z,18.80
2018-06-12T19:06:53.797Z,18.70
2018-06-12T19:09:22.034Z,18.50
2018-06-12T19:11:50.277Z,18.40
2018-06-12T19:14:18.501Z,18.30
2018-06-12T19:16:46.704Z,18.20
2018-06-12T19:19:14.932Z,18.10
2018-06-12T19:21:43.132Z,18.10
2018-06-12T19:24:11.335Z,18.00
2018-06-12T19:26:39.647Z,17.90
2018-06-12T19:29:07.784Z,17.80
2018-06-12T19:31:36.201Z,17.70
2018-06-12T19:34:04.469Z,17.60
2018-06-12T19:39:04.663Z,17.60
2018-06-12T19:41:32.891Z,17.50
2018-06-12T19:44:01.107Z,17.50
2018-06-12T19:46:29.335Z,17.40
2018-06-12T19:48:57.668Z,17.30
2018-06-12T19:51:25.918Z,17.30
2018-06-12T19:53:54.131Z,17.30
2018-06-12T19:56:22.348Z,17.20
2018-06-12T19:58:50.545Z,17.30
2018-06-12T20:01:18.759Z,17.30
2018-06-12T20:03:46.978Z,17.40
2018-06-12T20:06:15.245Z,17.30
2018-06-12T20:08:43.403Z,17.30
2018-06-12T20:11:11.714Z,17.40
2018-06-12T20:13:40.067Z,17.40
2018-06-12T20:16:08.301Z,17.40
2018-06-12T20:18:36.516Z,17.50
2018-06-12T20:21:04.744Z,17.50
2018-06-12T20:23:32.952Z,17.40
2018-06-12T20:26:01.167Z,17.50
2018-06-12T20:28:29.390Z,17.50
2018-06-12T20:33:25.563Z,17.60
2018-06-12T20:35:53.792Z,17.60
2018-06-12T20:38:22.008Z,17.60
2018-06-12T20:40:50.232Z,17.60
2018-06-12T20:43:18.465Z,17.70
2018-06-12T20:45:46.689Z,17.70
2018-06-12T20:48:14.970Z,17.70
2018-06-12T20:50:43.217Z,17.60
2018-06-12T20:53:11.451Z,17.60
2018-06-12T20:55:39.660Z,17.60
2018-06-12T20:58:07.887Z,17.60
2018-06-12T21:00:36.130Z,17.50
2018-06-12T21:03:04.375Z,17.50
2018-06-12T21:05:32.604Z,17.60
2018-06-12T21:08:00.860Z,17.60
2018-06-12T21:10:29.067Z,17.60
2018-06-12T21:12:57.283Z,17.50
2018-06-12T21:15:25.513Z,17.50
2018-06-12T21:17:53.759Z,17.50
2018-06-12T21:20:21.960Z,17.50
2018-06-12T21:22:50.176Z,17.40
2018-06-12T21:25:18.384Z,17.40
2018-06-12T21:30:14.583Z,17.30
2018-06-12T21:32:42.811Z,17.30
2018-06-12T21:35:11.023Z,17.30
2018-06-12T21:37:39.260Z,17.30
2018-06-12T21:40:07.491Z,17.30
2018-06-12T21:42:35.715Z,17.30
2018-06-12T21:45:03.936Z,17.30
2018-06-12T21:47:32.172Z,17.30
2018-06-12T21:50:00.377Z,17.20
2018-06-12T21:52:28.613Z,17.30
2018-06-12T21:54:56.820Z,17.30
2018-06-12T21:57:25.097Z,17.30
2018-06-12T21:59:53.352Z,17.30
2018-06-12T22:02:21.581Z,17.30
2018-06-12T22:04:49.942Z,17.30
2018-06-12T22:07:18.115Z,17.20
2018-06-12T22:09:46.374Z,17.20
2018-06-12T22:12:14.605Z,17.20
2018-06-12T22:14:42.816Z,17.20
2018-06-12T22:17:11.008Z,17.10
2018-06-12T22:19:39.272Z,17.10
2018-06-12T22:22:07.503Z,17.00
2018-06-12T22:24:35.717Z,17.10
2018-06-12T22:27:03.932Z,17.10
2018-06-12T22:29:32.151Z,17.10
2018-06-12T22:32:00.406Z,17.10
2018-06-12T22:34:28.657Z,17.00
2018-06-12T22:39:24.927Z,17.00
2018-06-12T22:44:21.978Z,17.00
2018-06-12T22:46:50.258Z,17.00
2018-06-12T22:49:18.471Z,17.00
2018-06-12T22:51:46.702Z,17.00
2018-06-12T22:54:14.946Z,17.00
2018-06-12T22:56:43.203Z,17.00
2018-06-12T22:59:11.437Z,17.00
2018-06-12T23:01:39.712Z,17.00
2018-06-12T23:04:07.988Z,17.00
2018-06-12T23:06:36.589Z,16.90
2018-06-12T23:09:07.331Z,16.90
2018-06-12T23:11:35.552Z,16.90
2018-06-12T23:16:31.830Z,16.90
2018-06-12T23:19:00.061Z,16.90
2018-06-12T23:24:14.119Z,16.80
2018-06-12T23:26:42.380Z,16.70
2018-06-12T23:29:10.608Z,16.80
2018-06-12T23:31:38.936Z,16.80
2018-06-12T23:34:07.151Z,16.80
2018-06-12T23:36:35.396Z,16.70
2018-06-12T23:39:04.679Z,16.80
2018-06-12T23:41:32.932Z,16.70
2018-06-12T23:44:01.180Z,16.60
2018-06-12T23:46:29.439Z,16.50
2018-06-12T23:48:57.674Z,16.40
2018-06-12T23:51:25.907Z,16.40
2018-06-12T23:53:54.136Z,16.40
2018-06-12T23:56:22.393Z,16.50
2018-06-12T23:58:50.636Z,16.50
